Погода Балбаина неделю

Смоленская область, Россия

23 - 29 мая
  • 23мая
    Сегодня
    +8°
    +24°
    Ясно и безоблачно
    ВремяПогодаТемператураВлажностьДавлениеВетер, м/сВероятность осадков
    00:00Ясно и безоблачно+12°C85 %752 мм1.4 м/с2 %
    03:00Ясно и безоблачно+10°C54 %752 мм1.1 м/с2 %
    06:00Ясно и безоблачно+10°C61 %753 мм1.3 м/с2 %
    09:00Ясно и безоблачно+17°C56 %754 мм2.0 м/с2 %
    12:00Ясно и безоблачно+22°C43 %755 мм3.0 м/с2 %
    15:00Ясно и безоблачно+23°C37 %755 мм2.7 м/с2 %
    18:00Ясно и безоблачно+23°C39 %755 мм2.4 м/с2 %
    21:00Ясно и безоблачно+17°C51 %755 мм1.2 м/с2 %
  • 24мая
    Пятница
    +6°
    +22°
    Ясно и безоблачно
    ВремяПогодаТемператураВлажностьДавлениеВетер, м/сВероятность осадков
    00:00Ясно и безоблачно+11°C55 %756 мм1.3 м/с2 %
    03:00Ясно и безоблачно+9°C61 %757 мм1.1 м/с2 %
    06:00Ясно и безоблачно+9°C63 %758 мм1.3 м/с2 %
    09:00Ясно и безоблачно+16°C50 %759 мм2.1 м/с2 %
    12:00Ясно и безоблачно+20°C38 %758 мм2.7 м/с2 %
    15:00Ясно и безоблачно+21°C36 %758 мм2.3 м/с2 %
    18:00Ясно и безоблачно+22°C37 %757 мм2.1 м/с2 %
    21:00Ясно и безоблачно+15°C53 %757 мм0.6 м/с2 %
  • 25мая
    Суббота
    +8°
    +25°
    Ясно и безоблачно
    ВремяПогодаТемператураВлажностьДавлениеВетер, м/сВероятность осадков
    00:00Ясно и безоблачно+10°C55 %757 мм0.8 м/с2 %
    03:00Ясно и безоблачно+7°C64 %757 мм0.8 м/с2 %
    06:00Ясно и безоблачно+8°C69 %757 мм0.9 м/с2 %
    09:00Ясно и безоблачно+16°C59 %757 мм1.3 м/с2 %
    12:00Ясно и безоблачно+22°C46 %756 мм2.1 м/с2 %
    15:00Ясно и безоблачно+23°C39 %755 мм1.9 м/с2 %
    18:00Ясно и безоблачно+24°C40 %754 мм1.8 м/с2 %
    21:00Ясно и безоблачно+16°C64 %753 мм0.3 м/с2 %
  • 26мая
    Воскресенье
    +9°
    +26°
    Ясно и безоблачно
    ВремяПогодаТемператураВлажностьДавлениеВетер, м/сВероятность осадков
    00:00Ясно и безоблачно+12°C69 %754 мм0.6 м/с2 %
    03:00Ясно и безоблачно+9°C74 %753 мм0.5 м/с3 %
    06:00Ясно и безоблачно+10°C78 %753 мм0.4 м/с3 %
    09:00Ясно и безоблачно+19°C57 %754 мм0.7 м/с3 %
    12:00Практически безоблачно+24°C40 %754 мм1.5 м/с7 %
    15:00Ясно и безоблачно+25°C38 %753 мм1.1 м/с13 %
    18:00Облачно с прояснениями+26°C38 %753 мм1.3 м/с16 %
    21:00Облачно с прояснениями+18°C61 %753 мм0.1 м/с9 %
  • 27мая
    Понедельник
    +11°
    +26°
    Практически безоблачно
    ВремяПогодаТемператураВлажностьДавлениеВетер, м/сВероятность осадков
    00:00Практически безоблачно+13°C71 %753 мм0.4 м/с2 %
    03:00Небольшая облачность+10°C84 %754 мм0.3 м/с2 %
    06:00Ясно и безоблачно+11°C85 %754 мм0.5 м/с4 %
    09:00Ясно и безоблачно+20°C69 %755 мм0.6 м/с2 %
    12:00Практически безоблачно+25°C48 %755 мм1.4 м/с19 %
    15:00Практически безоблачно+26°C46 %754 мм1.6 м/с25 %
    18:00Небольшая облачность+25°C50 %754 мм0.9 м/с28 %
    21:00Практически безоблачно+19°C77 %754 мм0.3 м/с9 %
Мы используем cookies
Соглашаюсь